Terminal Aerodrome Forecast
Issued by NWS

Home | Current Version | Previous Version | Text Only | Print | Product List | Glossary On
Versions: 1 2 3 4 5 6 7 8 9 10 11 12 13 14 15 16 17 18 19 20 21 22
795
FTUS44 KSJT 110651 AAA
TAFSOA
TAF AMD
KSOA 110651Z 1107/1206 18008KT 2SM BR OVC001 WS020/19045KT
      TEMPO 1108/1112 1SM BR OVC003
     FM111200 19008KT 5SM BR OVC004
     FM111600 20011KT P6SM BKN015
     FM111800 22014G22KT P6SM SKC=

USA.gov is the U.S. government's official web portal to all federal, state and local government web resources and services.